Straumvik — LEYJ — position and weather

sailwx.info

Track history (hours):
 
Tides and Currents Weather Stations Pressure Air Temp Water Temp Dewpoint Dewpoint Depression Visibility Wind Speed Wind Dir Waves Ship Positions

Straumvik

Last reported at 2018-Feb-24 23:59 UTC. Time now 2018-Feb-25 00:00 UTC.
Position N 59°37' E 005°18'.

Length 50 m; draft 5 m.

Type: Ship. MMSI: 258260000.

Date/timePositionNaut miles runAvg speedWind from/ knotsBaromVisibWave heightAir tempDewpointWater temp
2018-Feb-24 23:59N 59°37' E 005°18'4 7.6
2018-Feb-24 23:30N 59°40' E 005°21'4 7.1
2018-Feb-24 23:00N 59°43' E 005°24'4 7.6
2018-Feb-24 22:30N 59°47' E 005°20'4 7.8
2018-Feb-24 22:00N 59°50' E 005°17'4 7.9
2018-Feb-24 21:30N 59°54' E 005°13'4 7.8
2018-Feb-24 21:00N 59°57' E 005°12'4 7.5
2018-Feb-24 20:30N 60°01' E 005°12'4 8.2
2018-Feb-24 20:00N 60°05' E 005°11'4 8.7
2018-Feb-24 19:30N 60°10' E 005°11'4 8.7
2018-Feb-24 19:00N 60°14' E 005°10'4 8.8
2018-Feb-24 18:30N 60°18' E 005°08'4 8.5
2018-Feb-24 18:00N 60°22' E 005°10'4 8.1
2018-Feb-24 17:30N 60°25' E 005°03'4 8.5
2018-Feb-24 17:00N 60°29' E 004°59'4 8.9
2018-Feb-24 16:30N 60°33' E 004°56'4 8.8
2018-Feb-24 16:00N 60°37' E 004°53'4 8.9
2018-Feb-24 15:30N 60°41' E 004°50'5 8.9
2018-Feb-24 15:00N 60°45' E 004°47'4 8.6
2018-Feb-24 14:30N 60°49' E 004°44'4 8.1
2018-Feb-24 14:00N 60°53' E 004°46'4 8.2
2018-Feb-24 13:30N 60°57' E 004°46'4 7.5
2018-Feb-24 13:00N 61°00' E 004°50'4 8.3
2018-Feb-24 12:29N 61°03' E 004°58'4 8.0
2018-Feb-24 12:00N 61°05' E 005°05'4 8.3
2018-Feb-24 11:30N 61°06' E 005°13'4 7.6
2018-Feb-24 11:00N 61°07' E 005°20'0 0.3
2018-Feb-24 10:30N 61°07' E 005°20'0 0.0
2018-Feb-24 10:00N 61°07' E 005°20'0 0.0
2018-Feb-24 09:30N 61°07' E 005°20'0 0.0
2018-Feb-24 09:00N 61°07' E 005°20'0 0.0
2018-Feb-24 08:30N 61°07' E 005°20'0 0.0
2018-Feb-24 08:00N 61°07' E 005°20'0 0.0
2018-Feb-24 07:29N 61°07' E 005°20'0 0.0
2018-Feb-24 07:00N 61°07' E 005°20'0 0.0
2018-Feb-24 06:30N 61°07' E 005°20'0 0.0
2018-Feb-24 06:00N 61°07' E 005°20'1 2.3
2018-Feb-24 05:30N 61°07' E 005°18'2 4.7
2018-Feb-24 05:00N 61°06' E 005°14'3 5.3
2018-Feb-24 04:30N 61°06' E 005°08'2 5.0
2018-Feb-24 04:00N 61°04' E 005°04'3 5.1
2018-Feb-24 03:30N 61°03' E 004°59'3 5.4
2018-Feb-24 02:58N 61°01' E 004°55'3 5.3
2018-Feb-24 02:30N 60°58' E 004°55'3 5.5
2018-Feb-24 01:59N 60°56' E 004°57'3 5.9
2018-Feb-24 01:30N 60°53' E 004°58'3 5.1
2018-Feb-24 00:59N 60°51' E 004°60'1 2.7
2018-Feb-24 00:30N 60°51' E 005°02'0 0.0
2018-Feb-24 00:00N 60°51' E 005°02'0 0.0
2018-Feb-23 23:30N 60°51' E 005°02'0 0.0
2018-Feb-23 23:00N 60°51' E 005°02'0 0.0
2018-Feb-23 22:30N 60°51' E 005°02'0 0.0
2018-Feb-23 22:00N 60°51' E 005°02'0 0.0
2018-Feb-23 21:30N 60°51' E 005°02'0 0.0
2018-Feb-23 21:00N 60°51' E 005°02'0 0.5
2018-Feb-23 20:30N 60°51' E 005°03'3 6.9
2018-Feb-23 20:00N 60°51' E 004°56'4 9.0
2018-Feb-23 19:30N 60°50' E 004°47'4 7.4
2018-Feb-23 19:00N 60°46' E 004°47'5 9.6
2018-Feb-23 18:30N 60°42' E 004°50'5 9.8
2018-Feb-23 18:00N 60°37' E 004°53'5 9.8
2018-Feb-23 17:29N 60°32' E 004°57'5 9.7
2018-Feb-23 16:59N 60°28' E 005°01'5 9.6
2018-Feb-23 16:30N 60°24' E 005°07'5 8.7
2018-Feb-23 15:59N 60°20' E 005°11'4 9.1
2018-Feb-23 15:30N 60°16' E 005°11'4 8.6
2018-Feb-23 15:00N 60°12' E 005°13'5 9.8
2018-Feb-23 14:28N 60°08' E 005°20'3 6.1
2018-Feb-23 14:00N 60°09' E 005°26'0 0.0
2018-Feb-23 13:29N 60°09' E 005°26'0 0.0
2018-Feb-23 12:56N 60°09' E 005°26'0 0.0
2018-Feb-23 12:29N 60°09' E 005°26'0 0.0
2018-Feb-23 11:59N 60°09' E 005°26'0 0.0
2018-Feb-23 11:29N 60°09' E 005°26'0 0.0
2018-Feb-23 11:00N 60°09' E 005°26'0 0.0
2018-Feb-23 10:30N 60°09' E 005°26'0 0.0
2018-Feb-23 10:00N 60°09' E 005°26'0 0.0
2018-Feb-23 09:30N 60°09' E 005°26'0 0.0
2018-Feb-23 09:00N 60°09' E 005°26'0 0.0
2018-Feb-23 08:29N 60°09' E 005°26'0 0.0
2018-Feb-23 08:00N 60°09' E 005°26'0 0.0
2018-Feb-23 07:30N 60°09' E 005°26'0 0.0
2018-Feb-23 07:00N 60°09' E 005°26'0 0.0
2018-Feb-23 06:30N 60°09' E 005°26'0 0.0
2018-Feb-23 06:00N 60°09' E 005°26'0 0.3
2018-Feb-23 05:29N 60°09' E 005°26'1 2.2
2018-Feb-23 05:00N 60°08' E 005°25'1 2.9
2018-Feb-23 04:30N 60°08' E 005°22'2 4.3
2018-Feb-23 04:00N 60°09' E 005°18'2 4.6
2018-Feb-23 03:30N 60°10' E 005°15'3 5.2
2018-Feb-23 03:00N 60°12' E 005°11'2 4.8
2018-Feb-23 02:30N 60°14' E 005°09'3 5.6
2018-Feb-23 02:00N 60°17' E 005°09'3 5.3
2018-Feb-23 01:30N 60°20' E 005°09'3 5.1
2018-Feb-23 01:00N 60°22' E 005°10'3 5.1
2018-Feb-23 00:30N 60°24' E 005°06'3 5.1
2018-Feb-23 00:00N 60°26' E 005°02'3 5.0
2018-Feb-22 23:30N 60°28' E 004°60'3 5.2
2018-Feb-22 23:00N 60°31' E 004°58'3 5.3
2018-Feb-22 22:29N 60°33' E 004°56'3 5.3
2018-Feb-22 22:00N 60°36' E 004°54'3 5.3
2018-Feb-22 21:30N 60°38' E 004°52'3 5.3
2018-Feb-22 21:00N 60°40' E 004°50'3 5.2
2018-Feb-22 20:30N 60°43' E 004°48'3 5.3
2018-Feb-22 20:00N 60°45' E 004°47'3 6.3
2018-Feb-22 19:30N 60°48' E 004°45'3 6.0
2018-Feb-22 19:00N 60°51' E 004°46'3 6.1
2018-Feb-22 18:30N 60°54' E 004°46'3 5.9
2018-Feb-22 18:00N 60°57' E 004°45'2 4.7
2018-Feb-22 17:30N 60°59' E 004°47'2 5.0
2018-Feb-22 17:00N 61°01' E 004°51'3 5.4
2018-Feb-22 16:30N 61°02' E 004°55'3 5.4
2018-Feb-22 16:00N 61°04' E 004°60'3 5.5
2018-Feb-22 15:30N 61°06' E 005°05'3 5.9
2018-Feb-22 15:00N 61°07' E 005°10'2 3.1
2018-Feb-22 14:28N 61°08' E 005°12'0 0.0
2018-Feb-22 13:58N 61°08' E 005°12'0 0.0
2018-Feb-22 13:28N 61°08' E 005°12'0 0.0
2018-Feb-22 12:58N 61°08' E 005°12'0 0.0
2018-Feb-22 12:28N 61°08' E 005°12'0 0.0
2018-Feb-22 11:58N 61°08' E 005°12'0 0.0
2018-Feb-22 11:28N 61°08' E 005°12'0 0.0
2018-Feb-22 10:58N 61°08' E 005°12'0 0.0
2018-Feb-22 10:28N 61°08' E 005°12'0 0.0
2018-Feb-22 09:58N 61°08' E 005°12'0 0.0
2018-Feb-22 09:28N 61°08' E 005°12'0 0.0
2018-Feb-22 08:58N 61°08' E 005°12'0 0.0
2018-Feb-22 08:28N 61°08' E 005°12'0 0.0
2018-Feb-22 07:58N 61°08' E 005°12'0 0.0
2018-Feb-22 07:28N 61°08' E 005°12'0 0.0
2018-Feb-22 06:58N 61°08' E 005°12'0 0.0
2018-Feb-22 06:29N 61°08' E 005°12'0 0.0
2018-Feb-22 06:00N 61°08' E 005°12'0 0.0
2018-Feb-22 05:18N 61°08' E 005°12'0 0.0
2018-Feb-22 04:39N 61°08' E 005°12'0 0.0
2018-Feb-22 04:29N 61°08' E 005°12'0 0.0
2018-Feb-22 04:00N 61°08' E 005°12'0 0.0
2018-Feb-22 03:30N 61°08' E 005°12'0 0.0
2018-Feb-22 03:00N 61°08' E 005°12'0 0.0
2018-Feb-22 02:30N 61°08' E 005°12'0 0.0
2018-Feb-22 02:00N 61°08' E 005°12'0 0.0
2018-Feb-22 01:29N 61°08' E 005°12'0 0.0
2018-Feb-22 01:00N 61°08' E 005°12'0 0.0
2018-Feb-22 00:30N 61°08' E 005°12'0 0.0
2018-Feb-22 00:00N 61°08' E 005°12'0 0.0
2018-Feb-21 23:30N 61°08' E 005°12'0 0.0
2018-Feb-21 22:58N 61°08' E 005°12'0 0.0
2018-Feb-21 22:30N 61°08' E 005°12'0 0.0
2018-Feb-21 21:59N 61°08' E 005°12'0 0.0
2018-Feb-21 21:30N 61°08' E 005°12'0 0.0
2018-Feb-21 21:00N 61°08' E 005°12'2 3.2
2018-Feb-21 20:30N 61°08' E 005°09'4 7.7
2018-Feb-21 19:59N 61°11' E 005°02'4 7.7
2018-Feb-21 19:30N 61°13' E 004°57'4 7.1
2018-Feb-21 19:00N 61°17' E 004°56'4 8.0
2018-Feb-21 18:30N 61°19' E 005°03'4 7.3
2018-Feb-21 18:00N 61°22' E 005°01'4 7.5
2018-Feb-21 17:30N 61°26' E 004°58'4 7.9
2018-Feb-21 16:59N 61°30' E 004°59'4 8.1
2018-Feb-21 16:30N 61°34' E 004°59'4 7.4
2018-Feb-21 16:00N 61°37' E 004°59'4 8.3
2018-Feb-21 15:30N 61°41' E 004°58'4 8.8
2018-Feb-21 15:00N 61°45' E 005°02'5 9.2
2018-Feb-21 14:30N 61°46' E 005°11'3 5.2
2018-Feb-21 13:56N 61°46' E 005°17'0 0.0
2018-Feb-21 13:29N 61°46' E 005°17'0 0.0
2018-Feb-21 12:59N 61°46' E 005°17'0 0.0
2018-Feb-21 12:28N 61°46' E 005°17'0 0.0
2018-Feb-21 11:59N 61°46' E 005°17'0 0.0
2018-Feb-21 11:29N 61°46' E 005°17'0 0.0
2018-Feb-21 11:00N 61°46' E 005°17'0 0.0
2018-Feb-21 10:30N 61°46' E 005°17'0 0.0
2018-Feb-21 10:00N 61°46' E 005°17'0 0.0
2018-Feb-21 09:30N 61°46' E 005°17'0 0.0
2018-Feb-21 09:00N 61°46' E 005°17'0 0.0
2018-Feb-21 08:30N 61°46' E 005°17'0 0.0
2018-Feb-21 08:00N 61°46' E 005°17'0 0.0
2018-Feb-21 07:29N 61°46' E 005°17'0 0.0
2018-Feb-21 07:00N 61°46' E 005°17'2 3.1
2018-Feb-21 06:30N 61°46' E 005°14'4 7.9
2018-Feb-21 06:00N 61°45' E 005°06'3 6.8
2018-Feb-21 05:30N 61°49' E 005°08'4 7.8
2018-Feb-21 04:59N 61°50' E 005°16'4 7.3
2018-Feb-21 04:30N 61°53' E 005°10'4 7.2
2018-Feb-21 04:00N 61°56' E 005°08'4 7.7
2018-Feb-21 03:30N 61°60' E 005°10'4 8.0
2018-Feb-21 03:00N 62°04' E 005°07'4 7.0
2018-Feb-21 02:29N 62°07' E 005°05'3 6.3
2018-Feb-21 02:00N 62°10' E 005°03'3 5.5
2018-Feb-21 01:30N 62°12' E 005°07'3 5.9
2018-Feb-21 00:58N 62°14' E 005°12'3 6.5
2018-Feb-21 00:30N 62°16' E 005°18'3 6.2
2018-Feb-21 00:00N 62°17' E 005°24'3 6.4
2018-Feb-20 23:30N 62°18' E 005°30'4 7.0
2018-Feb-20 23:00N 62°19' E 005°38'3 7.1
2018-Feb-20 22:30N 62°20' E 005°45'4 7.6
2018-Feb-20 22:00N 62°23' E 005°48'4 7.2
2018-Feb-20 21:30N 62°26' E 005°54'4 7.7
2018-Feb-20 20:59N 62°27' E 006°02'4 8.1
2018-Feb-20 20:30N 62°30' E 006°09'4 7.8
2018-Feb-20 20:00N 62°34' E 006°11'4 7.6
2018-Feb-20 19:30N 62°36' E 006°17'4 7.7
2018-Feb-20 19:00N 62°39' E 006°23'4 7.9
2018-Feb-20 18:30N 62°42' E 006°28'4 7.9
2018-Feb-20 18:00N 62°45' E 006°33'4 8.0
2018-Feb-20 17:30N 62°49' E 006°37'4 7.6
2018-Feb-20 17:00N 62°52' E 006°42'4 7.6
2018-Feb-20 16:30N 62°55' E 006°47'4 7.1
2018-Feb-20 16:00N 62°58' E 006°51'4 7.0
2018-Feb-20 15:30N 62°60' E 006°58'4 7.3
2018-Feb-20 15:00N 63°01' E 007°06'4 7.2
2018-Feb-20 14:30N 63°02' E 007°13'4 7.7
2018-Feb-20 14:01N 63°01' E 007°21'4 7.3
2018-Feb-20 13:30N 62°58' E 007°24'0 0.6
2018-Feb-20 12:59N 62°57' E 007°24'0 0.0
2018-Feb-20 12:28N 62°57' E 007°24'0 0.0
2018-Feb-20 12:00N 62°57' E 007°24'0 0.0
2018-Feb-20 11:30N 62°57' E 007°24'0 0.0
2018-Feb-20 11:00N 62°57' E 007°24'1 1.3
2018-Feb-20 10:30N 62°58' E 007°26'4 8.0
2018-Feb-20 10:00N 62°56' E 007°34'5 9.5
2018-Feb-20 09:30N 62°59' E 007°43'4 8.6
2018-Feb-20 09:00N 62°58' E 007°53'4 7.2
2018-Feb-20 08:30N 63°01' E 007°58'0 0.0
2018-Feb-20 08:00N 63°01' E 007°58'0 0.0
2018-Feb-20 07:30N 63°01' E 007°58'0 0.0
2018-Feb-20 07:00N 63°01' E 007°58'0 0.0
2018-Feb-20 06:30N 63°01' E 007°58'0 0.0
2018-Feb-20 06:00N 63°01' E 007°58'0 0.0
2018-Feb-20 05:30N 63°01' E 007°58'0 0.0
2018-Feb-20 05:00N 63°01' E 007°58'0 0.0
2018-Feb-20 04:30N 63°01' E 007°58'0 0.0
2018-Feb-20 04:00N 63°01' E 007°58'0 0.0
2018-Feb-20 03:30N 63°01' E 007°58'0 0.0
2018-Feb-20 03:00N 63°01' E 007°58'0 0.0
2018-Feb-20 02:30N 63°01' E 007°58'0 0.0
2018-Feb-20 02:00N 63°01' E 007°58'0 0.0
2018-Feb-20 01:30N 63°01' E 007°58'0 0.0
2018-Feb-20 01:00N 63°01' E 007°58'0 0.0
2018-Feb-20 00:30N 63°01' E 007°58'0 0.0
2018-Feb-20 00:00N 63°01' E 007°58'0 0.0
2018-Feb-19 23:30N 63°01' E 007°58'0 0.0
2018-Feb-19 23:00N 63°01' E 007°58'0 0.0
2018-Feb-19 22:30N 63°01' E 007°58'0 0.0
2018-Feb-19 22:00N 63°01' E 007°58'0 0.0
2018-Feb-19 21:30N 63°01' E 007°58'0 0.0
2018-Feb-19 21:00N 63°01' E 007°58'0 0.0
2018-Feb-19 20:30N 63°01' E 007°58'0 0.0
2018-Feb-19 20:01N 63°01' E 007°58'2 4.8
2018-Feb-19 19:30N 62°59' E 007°55'4 7.8
2018-Feb-19 19:01N 62°59' E 007°46'4 8.4
2018-Feb-19 18:31N 63°02' E 007°41'4 8.5
2018-Feb-19 18:00N 63°06' E 007°41'3 6.9
2018-Feb-19 17:31N 63°07' E 007°33'4 8.9
2018-Feb-19 17:01N 63°04' E 007°25'4 8.6
2018-Feb-19 16:31N 63°02' E 007°16'4 8.6
2018-Feb-19 16:00N 63°01' E 007°07'4 8.4
2018-Feb-19 15:30N 62°59' E 006°59'4 8.2
2018-Feb-19 15:00N 62°58' E 006°51'4 8.5
2018-Feb-19 14:30N 62°54' E 006°45'4 9.0
2018-Feb-19 14:01N 62°50' E 006°40'5 9.1
2018-Feb-19 13:30N 62°47' E 006°34'4 8.7
2018-Feb-19 13:00N 62°43' E 006°29'5 8.8
2018-Feb-19 12:30N 62°39' E 006°24'4 8.3
2018-Feb-19 12:00N 62°36' E 006°17'4 8.7
2018-Feb-19 11:30N 62°33' E 006°11'4 8.8
2018-Feb-19 11:00N 62°29' E 006°07'4 8.6
2018-Feb-19 10:30N 62°25' E 006°02'4 8.7
2018-Feb-19 10:00N 62°23' E 006°11'5 9.5
2018-Feb-19 09:29N 62°24' E 006°21'4 9.3
2018-Feb-19 09:00N 62°24' E 006°31'2 3.8
2018-Feb-19 08:30N 62°24' E 006°35'0 0.0
2018-Feb-19 07:58N 62°24' E 006°35'0 0.0
2018-Feb-19 07:25N 62°24' E 006°35'0 0.0
2018-Feb-19 06:55N 62°24' E 006°35'0 0.0
2018-Feb-19 06:25N 62°24' E 006°35'0 0.0
2018-Feb-19 05:55N 62°24' E 006°35'0 0.0
2018-Feb-19 05:28N 62°24' E 006°35'0 0.0
2018-Feb-19 04:58N 62°24' E 006°35'0 0.0
2018-Feb-19 04:28N 62°24' E 006°35'0 0.0
2018-Feb-19 03:58N 62°24' E 006°35'0 0.0
2018-Feb-19 03:28N 62°24' E 006°35'0 0.0
2018-Feb-19 02:55N 62°24' E 006°35'0 0.0
2018-Feb-19 02:28N 62°24' E 006°35'0 0.0
2018-Feb-19 01:58N 62°24' E 006°35'0 0.0
2018-Feb-19 01:28N 62°24' E 006°35'0 0.0
2018-Feb-19 00:58N 62°24' E 006°35'0 0.0
2018-Feb-19 00:28N 62°24' E 006°35'0 0.0
2018-Feb-18 23:58N 62°24' E 006°35'0 0.0
2018-Feb-18 23:28N 62°24' E 006°35'0 0.0
2018-Feb-18 22:58N 62°24' E 006°35'0 0.0
2018-Feb-18 22:28N 62°24' E 006°35'0 0.0
2018-Feb-18 21:58N 62°24' E 006°35'0 0.0
2018-Feb-18 21:28N 62°24' E 006°35'0 0.0
2018-Feb-18 20:58N 62°24' E 006°35'0 0.0
2018-Feb-18 20:28N 62°24' E 006°35'0 0.0
2018-Feb-18 19:58N 62°24' E 006°35'0 0.0
2018-Feb-18 19:28N 62°24' E 006°35'0 0.0
2018-Feb-18 18:58N 62°24' E 006°35'0 0.2
2018-Feb-18 18:30N 62°24' E 006°34'2 4.4
2018-Feb-18 18:00N 62°26' E 006°34'4 8.0
2018-Feb-18 17:30N 62°27' E 006°42'4 7.7
2018-Feb-18 17:00N 62°26' E 006°50'4 7.3
2018-Feb-18 16:30N 62°24' E 006°56'4 8.1
2018-Feb-18 16:00N 62°20' E 006°57'4 7.9
2018-Feb-18 15:30N 62°16' E 007°01'4 7.9
2018-Feb-18 15:00N 62°12' E 007°02'4 7.5
2018-Feb-18 14:30N 62°09' E 006°59'3 0.8
2018-Feb-18 10:48N 62°06' E 006°55'2 8.2
2018-Feb-18 10:30N 62°08' E 006°58'4 8.0
2018-Feb-18 10:00N 62°12' E 007°02'4 8.1
2018-Feb-18 09:30N 62°16' E 007°01'4 7.9
2018-Feb-18 09:00N 62°19' E 006°57'4 8.1
2018-Feb-18 08:30N 62°23' E 006°55'4 7.2
2018-Feb-18 07:59N 62°26' E 006°51'4 8.2
2018-Feb-18 07:30N 62°27' E 006°42'4 8.2
2018-Feb-18 07:00N 62°26' E 006°34'4 8.1
2018-Feb-18 06:30N 62°24' E 006°26'4 8.1
2018-Feb-18 06:00N 62°23' E 006°18'4 8.3
2018-Feb-18 05:30N 62°21' E 006°10'4 8.3
2018-Feb-18 05:00N 62°18' E 006°03'4 8.3
2018-Feb-18 04:30N 62°15' E 005°57'4 7.6
2018-Feb-18 04:00N 62°13' E 005°51'4 8.3
2018-Feb-18 03:30N 62°11' E 005°43'4 7.8
2018-Feb-18 03:00N 62°11' E 005°34'4 7.1
2018-Feb-18 02:30N 62°12' E 005°27'3 7.0
2018-Feb-18 02:00N 62°11' E 005°19'4 7.7
2018-Feb-18 01:30N 62°13' E 005°13'4 7.4
2018-Feb-18 01:00N 62°12' E 005°05'4 7.0
2018-Feb-18 00:30N 62°08' E 005°05'4 7.2
2018-Feb-17 23:59N 62°05' E 005°07'4 7.7
2018-Feb-17 23:30N 62°01' E 005°09'4 8.5
2018-Feb-17 23:00N 61°57' E 005°09'4 7.3
2018-Feb-17 22:30N 61°53' E 005°10'4 7.5
2018-Feb-17 22:00N 61°51' E 005°16'4 7.5
2018-Feb-17 21:30N 61°49' E 005°09'4 8.1
2018-Feb-17 21:00N 61°46' E 005°03'4 8.0
2018-Feb-17 20:30N 61°43' E 004°58'4 8.4
2018-Feb-17 20:00N 61°39' E 004°59'4 8.4
2018-Feb-17 19:30N 61°35' E 004°57'4 7.7
2018-Feb-17 18:59N 61°31' E 005°00'4 8.0
2018-Feb-17 18:30N 61°27' E 004°58'4 7.8
2018-Feb-17 18:00N 61°23' E 005°00'4 8.6
2018-Feb-17 17:30N 61°19' E 005°04'4 7.5
2018-Feb-17 17:00N 61°17' E 004°58'3 6.7
2018-Feb-17 16:30N 61°14' E 004°56'4 8.1
2018-Feb-17 16:00N 61°11' E 005°01'4 8.6
2018-Feb-17 15:30N 61°06' E 005°02'4 8.3
2018-Feb-17 14:59N 61°03' E 004°57'4 8.1
2018-Feb-17 14:30N 61°00' E 004°50'4 7.4
2018-Feb-17 14:00N 60°58' E 004°46'4 7.6
2018-Feb-17 13:29N 60°54' E 004°46'4 7.6
2018-Feb-17 13:00N 60°50' E 004°45'4 7.6
2018-Feb-17 12:30N 60°46' E 004°47'4 8.3
2018-Feb-17 12:00N 60°42' E 004°51'4 8.3
2018-Feb-17 11:30N 60°39' E 004°55'4 8.1
2018-Feb-17 11:00N 60°37' E 005°02'4 8.2
2018-Feb-17 10:29N 60°35' E 005°10'4 8.3
2018-Feb-17 10:00N 60°33' E 005°16'1 1.6
2018-Feb-17 09:30N 60°32' E 005°17'4 7.5
2018-Feb-17 09:00N 60°29' E 005°15'4 8.3
2018-Feb-17 08:30N 60°24' E 005°16'4 7.6
2018-Feb-17 08:00N 60°22' E 005°10'4 8.5
2018-Feb-17 07:30N 60°18' E 005°09'2 3.2
2018-Feb-17 06:59N 60°16' E 005°06'1 2.8
2018-Feb-17 06:30N 60°15' E 005°08'2 4.5
2018-Feb-17 06:00N 60°13' E 005°10'2 4.2
2018-Feb-17 05:30N 60°12' E 005°13'2 4.3
2018-Feb-17 05:00N 60°10' E 005°15'2 4.4
2018-Feb-17 04:30N 60°08' E 005°17'2 4.1
2018-Feb-17 04:00N 60°06' E 005°19'2 4.1
2018-Feb-17 03:30N 60°04' E 005°19'2 4.5
2018-Feb-17 02:59N 60°02' E 005°20'2 4.2
2018-Feb-17 02:30N 59°60' E 005°21'2 3.8
2018-Feb-17 02:00N 59°58' E 005°24'2 4.3
2018-Feb-17 01:30N 59°57' E 005°27'2 4.1
2018-Feb-17 01:00N 59°55' E 005°30'2 3.8
2018-Feb-17 00:28N 59°54' E 005°32'2 3.7
2018-Feb-17 00:00N 59°52' E 005°33'2 4.0
2018-Feb-16 23:28N 59°50' E 005°33'2 3.8
2018-Feb-16 22:59N 59°48' E 005°34'2 3.6
2018-Feb-16 22:29N 59°46' E 005°34'2 3.9
2018-Feb-16 22:00N 59°45' E 005°31'2 3.9
2018-Feb-16 21:29N 59°43' E 005°28'2 3.9
2018-Feb-16 21:00N 59°42' E 005°26'2 4.2
2018-Feb-16 20:30N 59°40' E 005°23'2 4.3
2018-Feb-16 20:00N 59°39' E 005°20'2 4.4
2018-Feb-16 19:30N 59°37' E 005°18'2 4.7
2018-Feb-16 19:00N 59°35' E 005°16'3 6.2
2018-Feb-16 18:30N 59°32' E 005°13'3 7.1
2018-Feb-16 18:01N 59°29' E 005°13'3 6.8
2018-Feb-16 17:30N 59°25' E 005°14'4 8.2
2018-Feb-16 17:00N 59°22' E 005°18'4 8.0
2018-Feb-16 16:29N 59°18' E 005°20'3 6.3
2018-Feb-16 16:00N 59°15' E 005°23'3 6.1
2018-Feb-16 15:30N 59°13' E 005°28'3 6.8
2018-Feb-16 15:00N 59°11' E 005°33'3 6.7
2018-Feb-16 14:30N 59°09' E 005°39'4 7.8
2018-Feb-16 14:00N 59°08' E 005°46'4 7.0
2018-Feb-16 13:29N 59°07' E 005°52'2 3.3
2018-Feb-16 13:00N 59°05' E 005°54'0 0.0
2018-Feb-16 12:29N 59°05' E 005°54'0 0.0
2018-Feb-16 12:00N 59°05' E 005°54'0 0.3
2018-Feb-16 11:28N 59°05' E 005°54'0 0.0
2018-Feb-16 10:58N 59°05' E 005°54'0 0.0
2018-Feb-16 10:28N 59°05' E 005°54'0 0.0
2018-Feb-16 09:58N 59°05' E 005°54'0 0.0
2018-Feb-16 09:28N 59°05' E 005°54'0 0.0
2018-Feb-16 08:58N 59°05' E 005°54'0 0.0
2018-Feb-16 08:28N 59°05' E 005°54'0 0.0
2018-Feb-16 07:58N 59°05' E 005°54'0 0.0
2018-Feb-16 07:28N 59°05' E 005°54'0 0.0
2018-Feb-16 06:58N 59°05' E 005°54'0 0.0
2018-Feb-16 06:28N 59°05' E 005°54'0 0.0
2018-Feb-16 05:58N 59°05' E 005°54'0 0.0
2018-Feb-16 05:28N 59°05' E 005°54'0 0.0
2018-Feb-16 04:55N 59°05' E 005°54'0 0.0
2018-Feb-16 04:28N 59°05' E 005°54'0 0.0
2018-Feb-16 03:58N 59°05' E 005°54'0 0.0
2018-Feb-16 03:28N 59°05' E 005°54'0 0.0
2018-Feb-16 02:58N 59°05' E 005°54'0 0.0
2018-Feb-16 02:28N 59°05' E 005°54'0 0.0
2018-Feb-16 01:58N 59°05' E 005°54'0 0.0
2018-Feb-16 01:28N 59°05' E 005°54'0 0.0
2018-Feb-16 00:58N 59°05' E 005°54'0 0.0
2018-Feb-16 00:28N 59°05' E 005°54'0 0.0
2018-Feb-15 23:55N 59°05' E 005°54'0 0.0
2018-Feb-15 23:28N 59°05' E 005°54'0 0.0
2018-Feb-15 22:58N 59°05' E 005°54'0 0.0
2018-Feb-15 22:28N 59°05' E 005°54'0 0.0
2018-Feb-15 21:58N 59°05' E 005°54'0 0.0
2018-Feb-15 21:28N 59°05' E 005°54'0 0.0
2018-Feb-15 20:58N 59°05' E 005°54'0 0.0
2018-Feb-15 20:25N 59°05' E 005°54'0 0.0
2018-Feb-15 19:58N 59°05' E 005°54'0 0.0
2018-Feb-15 19:28N 59°05' E 005°54'0 0.0
2018-Feb-15 18:58N 59°05' E 005°54'0 0.0
2018-Feb-15 18:28N 59°05' E 005°54'0 0.0
2018-Feb-15 17:58N 59°05' E 005°54'0 0.0
2018-Feb-15 17:28N 59°05' E 005°54'0 0.0
2018-Feb-15 16:58N 59°05' E 005°54'0 0.0
2018-Feb-15 16:28N 59°05' E 005°54'0 0.0
2018-Feb-15 15:58N 59°05' E 005°54'0 0.0
2018-Feb-15 15:28N 59°05' E 005°54'0 0.2
2018-Feb-15 15:00N 59°06' E 005°55'0 0.0
2018-Feb-15 14:30N 59°06' E 005°55'0 0.0
2018-Feb-15 14:00N 59°06' E 005°55'0 0.0
2018-Feb-15 13:30N 59°06' E 005°55'0 0.0
2018-Feb-15 13:00N 59°06' E 005°55'0 0.0
2018-Feb-15 12:30N 59°06' E 005°55'0 0.0
2018-Feb-15 11:57N 59°06' E 005°55'0 0.0
2018-Feb-15 11:30N 59°06' E 005°55'0 0.0
2018-Feb-15 11:00N 59°06' E 005°55'0 0.0
2018-Feb-15 10:30N 59°06' E 005°55'0 0.0
2018-Feb-15 10:00N 59°06' E 005°55'0 0.0
2018-Feb-15 09:30N 59°06' E 005°55'0 0.0
2018-Feb-15 09:00N 59°06' E 005°55'0 0.0
2018-Feb-15 08:27N 59°06' E 005°55'0 0.0
2018-Feb-15 08:00N 59°06' E 005°55'0 0.0
2018-Feb-15 07:30N 59°06' E 005°55'0 0.0
2018-Feb-15 07:00N 59°06' E 005°55'0 0.0
2018-Feb-15 06:30N 59°06' E 005°55'0 0.0
2018-Feb-15 06:00N 59°06' E 005°55'3 5.5
2018-Feb-15 05:30N 59°03' E 005°52'5 9.1
2018-Feb-15 05:00N 58°59' E 005°51'4 8.1
2018-Feb-15 04:30N 58°55' E 005°46'2 3.1
2018-Feb-15 04:00N 58°54' E 005°45'0 0.0
2018-Feb-15 03:29N 58°54' E 005°45'0 0.0
2018-Feb-15 02:59N 58°54' E 005°45'0 0.0
2018-Feb-15 02:29N 58°54' E 005°45'0 0.0
2018-Feb-15 01:59N 58°54' E 005°45'0 0.0
2018-Feb-15 01:29N 58°54' E 005°45'0 0.0
2018-Feb-15 00:59N 58°54' E 005°45'0 0.0
2018-Feb-15 00:30N 58°54' E 005°45'0 0.0
2018-Feb-14 23:59N 58°54' E 005°45'  
Track history (hours):
 
Tides and Currents Weather Stations Pressure Air Temp Water Temp Dewpoint Dewpoint Depression Visibility Wind Speed Wind Dir Waves Ship Positions

Straumvik

Last reported at 2018-Feb-24 23:59 UTC. Time now 2018-Feb-25 00:00 UTC.
Position N 59°37' E 005°18'.

Length 50 m; draft 5 m.

Type: Ship. MMSI: 258260000.

Date/timePositionNaut miles runAvg speedWind from/ knotsBaromVisibWave heightAir tempDewpointWater temp
2018-Feb-24 23:59N 59°37' E 005°18'4 7.6
2018-Feb-24 23:30N 59°40' E 005°21'4 7.1
2018-Feb-24 23:00N 59°43' E 005°24'4 7.6
2018-Feb-24 22:30N 59°47' E 005°20'4 7.8
2018-Feb-24 22:00N 59°50' E 005°17'4 7.9
2018-Feb-24 21:30N 59°54' E 005°13'4 7.8
2018-Feb-24 21:00N 59°57' E 005°12'4 7.5
2018-Feb-24 20:30N 60°01' E 005°12'4 8.2
2018-Feb-24 20:00N 60°05' E 005°11'4 8.7
2018-Feb-24 19:30N 60°10' E 005°11'4 8.7
2018-Feb-24 19:00N 60°14' E 005°10'4 8.8
2018-Feb-24 18:30N 60°18' E 005°08'4 8.5
2018-Feb-24 18:00N 60°22' E 005°10'4 8.1
2018-Feb-24 17:30N 60°25' E 005°03'4 8.5
2018-Feb-24 17:00N 60°29' E 004°59'4 8.9
2018-Feb-24 16:30N 60°33' E 004°56'4 8.8
2018-Feb-24 16:00N 60°37' E 004°53'4 8.9
2018-Feb-24 15:30N 60°41' E 004°50'5 8.9
2018-Feb-24 15:00N 60°45' E 004°47'4 8.6
2018-Feb-24 14:30N 60°49' E 004°44'4 8.1
2018-Feb-24 14:00N 60°53' E 004°46'4 8.2
2018-Feb-24 13:30N 60°57' E 004°46'4 7.5
2018-Feb-24 13:00N 61°00' E 004°50'4 8.3
2018-Feb-24 12:29N 61°03' E 004°58'4 8.0
2018-Feb-24 12:00N 61°05' E 005°05'4 8.3
2018-Feb-24 11:30N 61°06' E 005°13'4 7.6
2018-Feb-24 11:00N 61°07' E 005°20'0 0.3
2018-Feb-24 10:30N 61°07' E 005°20'0 0.0
2018-Feb-24 10:00N 61°07' E 005°20'0 0.0
2018-Feb-24 09:30N 61°07' E 005°20'0 0.0
2018-Feb-24 09:00N 61°07' E 005°20'0 0.0
2018-Feb-24 08:30N 61°07' E 005°20'0 0.0
2018-Feb-24 08:00N 61°07' E 005°20'0 0.0
2018-Feb-24 07:29N 61°07' E 005°20'0 0.0
2018-Feb-24 07:00N 61°07' E 005°20'0 0.0
2018-Feb-24 06:30N 61°07' E 005°20'0 0.0
2018-Feb-24 06:00N 61°07' E 005°20'1 2.3
2018-Feb-24 05:30N 61°07' E 005°18'2 4.7
2018-Feb-24 05:00N 61°06' E 005°14'3 5.3
2018-Feb-24 04:30N 61°06' E 005°08'2 5.0
2018-Feb-24 04:00N 61°04' E 005°04'3 5.1
2018-Feb-24 03:30N 61°03' E 004°59'3 5.4
2018-Feb-24 02:58N 61°01' E 004°55'3 5.3
2018-Feb-24 02:30N 60°58' E 004°55'3 5.5
2018-Feb-24 01:59N 60°56' E 004°57'3 5.9
2018-Feb-24 01:30N 60°53' E 004°58'3 5.1
2018-Feb-24 00:59N 60°51' E 004°60'1 2.7
2018-Feb-24 00:30N 60°51' E 005°02'0 0.0
2018-Feb-24 00:00N 60°51' E 005°02'0 0.0
2018-Feb-23 23:30N 60°51' E 005°02'0 0.0
2018-Feb-23 23:00N 60°51' E 005°02'0 0.0
2018-Feb-23 22:30N 60°51' E 005°02'0 0.0
2018-Feb-23 22:00N 60°51' E 005°02'0 0.0
2018-Feb-23 21:30N 60°51' E 005°02'0 0.0
2018-Feb-23 21:00N 60°51' E 005°02'0 0.5
2018-Feb-23 20:30N 60°51' E 005°03'3 6.9
2018-Feb-23 20:00N 60°51' E 004°56'4 9.0
2018-Feb-23 19:30N 60°50' E 004°47'4 7.4
2018-Feb-23 19:00N 60°46' E 004°47'5 9.6
2018-Feb-23 18:30N 60°42' E 004°50'5 9.8
2018-Feb-23 18:00N 60°37' E 004°53'5 9.8
2018-Feb-23 17:29N 60°32' E 004°57'5 9.7
2018-Feb-23 16:59N 60°28' E 005°01'5 9.6
2018-Feb-23 16:30N 60°24' E 005°07'5 8.7
2018-Feb-23 15:59N 60°20' E 005°11'4 9.1
2018-Feb-23 15:30N 60°16' E 005°11'4 8.6
2018-Feb-23 15:00N 60°12' E 005°13'5 9.8
2018-Feb-23 14:28N 60°08' E 005°20'3 6.1
2018-Feb-23 14:00N 60°09' E 005°26'0 0.0
2018-Feb-23 13:29N 60°09' E 005°26'0 0.0
2018-Feb-23 12:56N 60°09' E 005°26'0 0.0
2018-Feb-23 12:29N 60°09' E 005°26'0 0.0
2018-Feb-23 11:59N 60°09' E 005°26'0 0.0
2018-Feb-23 11:29N 60°09' E 005°26'0 0.0
2018-Feb-23 11:00N 60°09' E 005°26'0 0.0
2018-Feb-23 10:30N 60°09' E 005°26'0 0.0
2018-Feb-23 10:00N 60°09' E 005°26'0 0.0
2018-Feb-23 09:30N 60°09' E 005°26'0 0.0
2018-Feb-23 09:00N 60°09' E 005°26'0 0.0
2018-Feb-23 08:29N 60°09' E 005°26'0 0.0
2018-Feb-23 08:00N 60°09' E 005°26'0 0.0
2018-Feb-23 07:30N 60°09' E 005°26'0 0.0
2018-Feb-23 07:00N 60°09' E 005°26'0 0.0
2018-Feb-23 06:30N 60°09' E 005°26'0 0.0
2018-Feb-23 06:00N 60°09' E 005°26'0 0.3
2018-Feb-23 05:29N 60°09' E 005°26'1 2.2
2018-Feb-23 05:00N 60°08' E 005°25'1 2.9
2018-Feb-23 04:30N 60°08' E 005°22'2 4.3
2018-Feb-23 04:00N 60°09' E 005°18'2 4.6
2018-Feb-23 03:30N 60°10' E 005°15'3 5.2
2018-Feb-23 03:00N 60°12' E 005°11'2 4.8
2018-Feb-23 02:30N 60°14' E 005°09'3 5.6
2018-Feb-23 02:00N 60°17' E 005°09'3 5.3
2018-Feb-23 01:30N 60°20' E 005°09'3 5.1
2018-Feb-23 01:00N 60°22' E 005°10'3 5.1
2018-Feb-23 00:30N 60°24' E 005°06'3 5.1
2018-Feb-23 00:00N 60°26' E 005°02'3 5.0
2018-Feb-22 23:30N 60°28' E 004°60'3 5.2
2018-Feb-22 23:00N 60°31' E 004°58'3 5.3
2018-Feb-22 22:29N 60°33' E 004°56'3 5.3
2018-Feb-22 22:00N 60°36' E 004°54'3 5.3
2018-Feb-22 21:30N 60°38' E 004°52'3 5.3
2018-Feb-22 21:00N 60°40' E 004°50'3 5.2
2018-Feb-22 20:30N 60°43' E 004°48'3 5.3
2018-Feb-22 20:00N 60°45' E 004°47'3 6.3
2018-Feb-22 19:30N 60°48' E 004°45'3 6.0
2018-Feb-22 19:00N 60°51' E 004°46'3 6.1
2018-Feb-22 18:30N 60°54' E 004°46'3 5.9
2018-Feb-22 18:00N 60°57' E 004°45'2 4.7
2018-Feb-22 17:30N 60°59' E 004°47'2 5.0
2018-Feb-22 17:00N 61°01' E 004°51'3 5.4
2018-Feb-22 16:30N 61°02' E 004°55'3 5.4
2018-Feb-22 16:00N 61°04' E 004°60'3 5.5
2018-Feb-22 15:30N 61°06' E 005°05'3 5.9
2018-Feb-22 15:00N 61°07' E 005°10'2 3.1
2018-Feb-22 14:28N 61°08' E 005°12'0 0.0
2018-Feb-22 13:58N 61°08' E 005°12'0 0.0
2018-Feb-22 13:28N 61°08' E 005°12'0 0.0
2018-Feb-22 12:58N 61°08' E 005°12'0 0.0
2018-Feb-22 12:28N 61°08' E 005°12'0 0.0
2018-Feb-22 11:58N 61°08' E 005°12'0 0.0
2018-Feb-22 11:28N 61°08' E 005°12'0 0.0
2018-Feb-22 10:58N 61°08' E 005°12'0 0.0
2018-Feb-22 10:28N 61°08' E 005°12'0 0.0
2018-Feb-22 09:58N 61°08' E 005°12'0 0.0
2018-Feb-22 09:28N 61°08' E 005°12'0 0.0
2018-Feb-22 08:58N 61°08' E 005°12'0 0.0
2018-Feb-22 08:28N 61°08' E 005°12'0 0.0
2018-Feb-22 07:58N 61°08' E 005°12'0 0.0
2018-Feb-22 07:28N 61°08' E 005°12'0 0.0
2018-Feb-22 06:58N 61°08' E 005°12'0 0.0
2018-Feb-22 06:29N 61°08' E 005°12'0 0.0
2018-Feb-22 06:00N 61°08' E 005°12'0 0.0
2018-Feb-22 05:18N 61°08' E 005°12'0 0.0
2018-Feb-22 04:39N 61°08' E 005°12'0 0.0
2018-Feb-22 04:29N 61°08' E 005°12'0 0.0
2018-Feb-22 04:00N 61°08' E 005°12'0 0.0
2018-Feb-22 03:30N 61°08' E 005°12'0 0.0
2018-Feb-22 03:00N 61°08' E 005°12'0 0.0
2018-Feb-22 02:30N 61°08' E 005°12'0 0.0
2018-Feb-22 02:00N 61°08' E 005°12'0 0.0
2018-Feb-22 01:29N 61°08' E 005°12'0 0.0
2018-Feb-22 01:00N 61°08' E 005°12'0 0.0
2018-Feb-22 00:30N 61°08' E 005°12'0 0.0
2018-Feb-22 00:00N 61°08' E 005°12'0 0.0
2018-Feb-21 23:30N 61°08' E 005°12'0 0.0
2018-Feb-21 22:58N 61°08' E 005°12'0 0.0
2018-Feb-21 22:30N 61°08' E 005°12'0 0.0
2018-Feb-21 21:59N 61°08' E 005°12'0 0.0
2018-Feb-21 21:30N 61°08' E 005°12'0 0.0
2018-Feb-21 21:00N 61°08' E 005°12'2 3.2
2018-Feb-21 20:30N 61°08' E 005°09'4 7.7
2018-Feb-21 19:59N 61°11' E 005°02'4 7.7
2018-Feb-21 19:30N 61°13' E 004°57'4 7.1
2018-Feb-21 19:00N 61°17' E 004°56'4 8.0
2018-Feb-21 18:30N 61°19' E 005°03'4 7.3
2018-Feb-21 18:00N 61°22' E 005°01'4 7.5
2018-Feb-21 17:30N 61°26' E 004°58'4 7.9
2018-Feb-21 16:59N 61°30' E 004°59'4 8.1
2018-Feb-21 16:30N 61°34' E 004°59'4 7.4
2018-Feb-21 16:00N 61°37' E 004°59'4 8.3
2018-Feb-21 15:30N 61°41' E 004°58'4 8.8
2018-Feb-21 15:00N 61°45' E 005°02'5 9.2
2018-Feb-21 14:30N 61°46' E 005°11'3 5.2
2018-Feb-21 13:56N 61°46' E 005°17'0 0.0
2018-Feb-21 13:29N 61°46' E 005°17'0 0.0
2018-Feb-21 12:59N 61°46' E 005°17'0 0.0
2018-Feb-21 12:28N 61°46' E 005°17'0 0.0
2018-Feb-21 11:59N 61°46' E 005°17'0 0.0
2018-Feb-21 11:29N 61°46' E 005°17'0 0.0
2018-Feb-21 11:00N 61°46' E 005°17'0 0.0
2018-Feb-21 10:30N 61°46' E 005°17'0 0.0
2018-Feb-21 10:00N 61°46' E 005°17'0 0.0
2018-Feb-21 09:30N 61°46' E 005°17'0 0.0
2018-Feb-21 09:00N 61°46' E 005°17'0 0.0
2018-Feb-21 08:30N 61°46' E 005°17'0 0.0
2018-Feb-21 08:00N 61°46' E 005°17'0 0.0
2018-Feb-21 07:29N 61°46' E 005°17'0 0.0
2018-Feb-21 07:00N 61°46' E 005°17'2 3.1
2018-Feb-21 06:30N 61°46' E 005°14'4 7.9
2018-Feb-21 06:00N 61°45' E 005°06'3 6.8
2018-Feb-21 05:30N 61°49' E 005°08'4 7.8
2018-Feb-21 04:59N 61°50' E 005°16'4 7.3
2018-Feb-21 04:30N 61°53' E 005°10'4 7.2
2018-Feb-21 04:00N 61°56' E 005°08'4 7.7
2018-Feb-21 03:30N 61°60' E 005°10'4 8.0
2018-Feb-21 03:00N 62°04' E 005°07'4 7.0
2018-Feb-21 02:29N 62°07' E 005°05'3 6.3
2018-Feb-21 02:00N 62°10' E 005°03'3 5.5
2018-Feb-21 01:30N 62°12' E 005°07'3 5.9
2018-Feb-21 00:58N 62°14' E 005°12'3 6.5
2018-Feb-21 00:30N 62°16' E 005°18'3 6.2
2018-Feb-21 00:00N 62°17' E 005°24'3 6.4
2018-Feb-20 23:30N 62°18' E 005°30'4 7.0
2018-Feb-20 23:00N 62°19' E 005°38'3 7.1
2018-Feb-20 22:30N 62°20' E 005°45'4 7.6
2018-Feb-20 22:00N 62°23' E 005°48'4 7.2
2018-Feb-20 21:30N 62°26' E 005°54'4 7.7
2018-Feb-20 20:59N 62°27' E 006°02'4 8.1
2018-Feb-20 20:30N 62°30' E 006°09'4 7.8
2018-Feb-20 20:00N 62°34' E 006°11'4 7.6
2018-Feb-20 19:30N 62°36' E 006°17'4 7.7
2018-Feb-20 19:00N 62°39' E 006°23'4 7.9
2018-Feb-20 18:30N 62°42' E 006°28'4 7.9
2018-Feb-20 18:00N 62°45' E 006°33'4 8.0
2018-Feb-20 17:30N 62°49' E 006°37'4 7.6
2018-Feb-20 17:00N 62°52' E 006°42'4 7.6
2018-Feb-20 16:30N 62°55' E 006°47'4 7.1
2018-Feb-20 16:00N 62°58' E 006°51'4 7.0
2018-Feb-20 15:30N 62°60' E 006°58'4 7.3
2018-Feb-20 15:00N 63°01' E 007°06'4 7.2
2018-Feb-20 14:30N 63°02' E 007°13'4 7.7
2018-Feb-20 14:01N 63°01' E 007°21'4 7.3
2018-Feb-20 13:30N 62°58' E 007°24'0 0.6
2018-Feb-20 12:59N 62°57' E 007°24'0 0.0
2018-Feb-20 12:28N 62°57' E 007°24'0 0.0
2018-Feb-20 12:00N 62°57' E 007°24'0 0.0
2018-Feb-20 11:30N 62°57' E 007°24'0 0.0
2018-Feb-20 11:00N 62°57' E 007°24'1 1.3
2018-Feb-20 10:30N 62°58' E 007°26'4 8.0
2018-Feb-20 10:00N 62°56' E 007°34'5 9.5
2018-Feb-20 09:30N 62°59' E 007°43'4 8.6
2018-Feb-20 09:00N 62°58' E 007°53'4 7.2
2018-Feb-20 08:30N 63°01' E 007°58'0 0.0
2018-Feb-20 08:00N 63°01' E 007°58'0 0.0
2018-Feb-20 07:30N 63°01' E 007°58'0 0.0
2018-Feb-20 07:00N 63°01' E 007°58'0 0.0
2018-Feb-20 06:30N 63°01' E 007°58'0 0.0
2018-Feb-20 06:00N 63°01' E 007°58'0 0.0
2018-Feb-20 05:30N 63°01' E 007°58'0 0.0
2018-Feb-20 05:00N 63°01' E 007°58'0 0.0
2018-Feb-20 04:30N 63°01' E 007°58'0 0.0
2018-Feb-20 04:00N 63°01' E 007°58'0 0.0
2018-Feb-20 03:30N 63°01' E 007°58'0 0.0
2018-Feb-20 03:00N 63°01' E 007°58'0 0.0
2018-Feb-20 02:30N 63°01' E 007°58'0 0.0
2018-Feb-20 02:00N 63°01' E 007°58'0 0.0
2018-Feb-20 01:30N 63°01' E 007°58'0 0.0
2018-Feb-20 01:00N 63°01' E 007°58'0 0.0
2018-Feb-20 00:30N 63°01' E 007°58'0 0.0
2018-Feb-20 00:00N 63°01' E 007°58'0 0.0
2018-Feb-19 23:30N 63°01' E 007°58'0 0.0
2018-Feb-19 23:00N 63°01' E 007°58'0 0.0
2018-Feb-19 22:30N 63°01' E 007°58'0 0.0
2018-Feb-19 22:00N 63°01' E 007°58'0 0.0
2018-Feb-19 21:30N 63°01' E 007°58'0 0.0
2018-Feb-19 21:00N 63°01' E 007°58'0 0.0
2018-Feb-19 20:30N 63°01' E 007°58'0 0.0
2018-Feb-19 20:01N 63°01' E 007°58'2 4.8
2018-Feb-19 19:30N 62°59' E 007°55'4 7.8
2018-Feb-19 19:01N 62°59' E 007°46'4 8.4
2018-Feb-19 18:31N 63°02' E 007°41'4 8.5
2018-Feb-19 18:00N 63°06' E 007°41'3 6.9
2018-Feb-19 17:31N 63°07' E 007°33'4 8.9
2018-Feb-19 17:01N 63°04' E 007°25'4 8.6
2018-Feb-19 16:31N 63°02' E 007°16'4 8.6
2018-Feb-19 16:00N 63°01' E 007°07'4 8.4
2018-Feb-19 15:30N 62°59' E 006°59'4 8.2
2018-Feb-19 15:00N 62°58' E 006°51'4 8.5
2018-Feb-19 14:30N 62°54' E 006°45'4 9.0
2018-Feb-19 14:01N 62°50' E 006°40'5 9.1
2018-Feb-19 13:30N 62°47' E 006°34'4 8.7
2018-Feb-19 13:00N 62°43' E 006°29'5 8.8
2018-Feb-19 12:30N 62°39' E 006°24'4 8.3
2018-Feb-19 12:00N 62°36' E 006°17'4 8.7
2018-Feb-19 11:30N 62°33' E 006°11'4 8.8
2018-Feb-19 11:00N 62°29' E 006°07'4 8.6
2018-Feb-19 10:30N 62°25' E 006°02'4 8.7
2018-Feb-19 10:00N 62°23' E 006°11'5 9.5
2018-Feb-19 09:29N 62°24' E 006°21'4 9.3
2018-Feb-19 09:00N 62°24' E 006°31'2 3.8
2018-Feb-19 08:30N 62°24' E 006°35'0 0.0
2018-Feb-19 07:58N 62°24' E 006°35'0 0.0
2018-Feb-19 07:25N 62°24' E 006°35'0 0.0
2018-Feb-19 06:55N 62°24' E 006°35'0 0.0
2018-Feb-19 06:25N 62°24' E 006°35'0 0.0
2018-Feb-19 05:55N 62°24' E 006°35'0 0.0
2018-Feb-19 05:28N 62°24' E 006°35'0 0.0
2018-Feb-19 04:58N 62°24' E 006°35'0 0.0
2018-Feb-19 04:28N 62°24' E 006°35'0 0.0
2018-Feb-19 03:58N 62°24' E 006°35'0 0.0
2018-Feb-19 03:28N 62°24' E 006°35'0 0.0
2018-Feb-19 02:55N 62°24' E 006°35'0 0.0
2018-Feb-19 02:28N 62°24' E 006°35'0 0.0
2018-Feb-19 01:58N 62°24' E 006°35'0 0.0
2018-Feb-19 01:28N 62°24' E 006°35'0 0.0
2018-Feb-19 00:58N 62°24' E 006°35'0 0.0
2018-Feb-19 00:28N 62°24' E 006°35'0 0.0
2018-Feb-18 23:58N 62°24' E 006°35'0 0.0
2018-Feb-18 23:28N 62°24' E 006°35'0 0.0
2018-Feb-18 22:58N 62°24' E 006°35'0 0.0
2018-Feb-18 22:28N 62°24' E 006°35'0 0.0
2018-Feb-18 21:58N 62°24' E 006°35'0 0.0
2018-Feb-18 21:28N 62°24' E 006°35'0 0.0
2018-Feb-18 20:58N 62°24' E 006°35'0 0.0
2018-Feb-18 20:28N 62°24' E 006°35'0 0.0
2018-Feb-18 19:58N 62°24' E 006°35'0 0.0
2018-Feb-18 19:28N 62°24' E 006°35'0 0.0
2018-Feb-18 18:58N 62°24' E 006°35'0 0.2
2018-Feb-18 18:30N 62°24' E 006°34'2 4.4
2018-Feb-18 18:00N 62°26' E 006°34'4 8.0
2018-Feb-18 17:30N 62°27' E 006°42'4 7.7
2018-Feb-18 17:00N 62°26' E 006°50'4 7.3
2018-Feb-18 16:30N 62°24' E 006°56'4 8.1
2018-Feb-18 16:00N 62°20' E 006°57'4 7.9
2018-Feb-18 15:30N 62°16' E 007°01'4 7.9
2018-Feb-18 15:00N 62°12' E 007°02'4 7.5
2018-Feb-18 14:30N 62°09' E 006°59'3 0.8
2018-Feb-18 10:48N 62°06' E 006°55'2 8.2
2018-Feb-18 10:30N 62°08' E 006°58'4 8.0
2018-Feb-18 10:00N 62°12' E 007°02'4 8.1
2018-Feb-18 09:30N 62°16' E 007°01'4 7.9
2018-Feb-18 09:00N 62°19' E 006°57'4 8.1
2018-Feb-18 08:30N 62°23' E 006°55'4 7.2
2018-Feb-18 07:59N 62°26' E 006°51'4 8.2
2018-Feb-18 07:30N 62°27' E 006°42'4 8.2
2018-Feb-18 07:00N 62°26' E 006°34'4 8.1
2018-Feb-18 06:30N 62°24' E 006°26'4 8.1
2018-Feb-18 06:00N 62°23' E 006°18'4 8.3
2018-Feb-18 05:30N 62°21' E 006°10'4 8.3
2018-Feb-18 05:00N 62°18' E 006°03'4 8.3
2018-Feb-18 04:30N 62°15' E 005°57'4 7.6
2018-Feb-18 04:00N 62°13' E 005°51'4 8.3
2018-Feb-18 03:30N 62°11' E 005°43'4 7.8
2018-Feb-18 03:00N 62°11' E 005°34'4 7.1
2018-Feb-18 02:30N 62°12' E 005°27'3 7.0
2018-Feb-18 02:00N 62°11' E 005°19'4 7.7
2018-Feb-18 01:30N 62°13' E 005°13'4 7.4
2018-Feb-18 01:00N 62°12' E 005°05'4 7.0
2018-Feb-18 00:30N 62°08' E 005°05'4 7.2
2018-Feb-17 23:59N 62°05' E 005°07'4 7.7
2018-Feb-17 23:30N 62°01' E 005°09'4 8.5
2018-Feb-17 23:00N 61°57' E 005°09'4 7.3
2018-Feb-17 22:30N 61°53' E 005°10'4 7.5
2018-Feb-17 22:00N 61°51' E 005°16'4 7.5
2018-Feb-17 21:30N 61°49' E 005°09'4 8.1
2018-Feb-17 21:00N 61°46' E 005°03'4 8.0
2018-Feb-17 20:30N 61°43' E 004°58'4 8.4
2018-Feb-17 20:00N 61°39' E 004°59'4 8.4
2018-Feb-17 19:30N 61°35' E 004°57'4 7.7
2018-Feb-17 18:59N 61°31' E 005°00'4 8.0
2018-Feb-17 18:30N 61°27' E 004°58'4 7.8
2018-Feb-17 18:00N 61°23' E 005°00'4 8.6
2018-Feb-17 17:30N 61°19' E 005°04'4 7.5
2018-Feb-17 17:00N 61°17' E 004°58'3 6.7
2018-Feb-17 16:30N 61°14' E 004°56'4 8.1
2018-Feb-17 16:00N 61°11' E 005°01'4 8.6
2018-Feb-17 15:30N 61°06' E 005°02'4 8.3
2018-Feb-17 14:59N 61°03' E 004°57'4 8.1
2018-Feb-17 14:30N 61°00' E 004°50'4 7.4
2018-Feb-17 14:00N 60°58' E 004°46'4 7.6
2018-Feb-17 13:29N 60°54' E 004°46'4 7.6
2018-Feb-17 13:00N 60°50' E 004°45'4 7.6
2018-Feb-17 12:30N 60°46' E 004°47'4 8.3
2018-Feb-17 12:00N 60°42' E 004°51'4 8.3
2018-Feb-17 11:30N 60°39' E 004°55'4 8.1
2018-Feb-17 11:00N 60°37' E 005°02'4 8.2
2018-Feb-17 10:29N 60°35' E 005°10'4 8.3
2018-Feb-17 10:00N 60°33' E 005°16'1 1.6
2018-Feb-17 09:30N 60°32' E 005°17'4 7.5
2018-Feb-17 09:00N 60°29' E 005°15'4 8.3
2018-Feb-17 08:30N 60°24' E 005°16'4 7.6
2018-Feb-17 08:00N 60°22' E 005°10'4 8.5
2018-Feb-17 07:30N 60°18' E 005°09'2 3.2
2018-Feb-17 06:59N 60°16' E 005°06'1 2.8
2018-Feb-17 06:30N 60°15' E 005°08'2 4.5
2018-Feb-17 06:00N 60°13' E 005°10'2 4.2
2018-Feb-17 05:30N 60°12' E 005°13'2 4.3
2018-Feb-17 05:00N 60°10' E 005°15'2 4.4
2018-Feb-17 04:30N 60°08' E 005°17'2 4.1
2018-Feb-17 04:00N 60°06' E 005°19'2 4.1
2018-Feb-17 03:30N 60°04' E 005°19'2 4.5
2018-Feb-17 02:59N 60°02' E 005°20'2 4.2
2018-Feb-17 02:30N 59°60' E 005°21'2 3.8
2018-Feb-17 02:00N 59°58' E 005°24'2 4.3
2018-Feb-17 01:30N 59°57' E 005°27'2 4.1
2018-Feb-17 01:00N 59°55' E 005°30'2 3.8
2018-Feb-17 00:28N 59°54' E 005°32'2 3.7
2018-Feb-17 00:00N 59°52' E 005°33'2 4.0
2018-Feb-16 23:28N 59°50' E 005°33'2 3.8
2018-Feb-16 22:59N 59°48' E 005°34'2 3.6
2018-Feb-16 22:29N 59°46' E 005°34'2 3.9
2018-Feb-16 22:00N 59°45' E 005°31'2 3.9
2018-Feb-16 21:29N 59°43' E 005°28'2 3.9
2018-Feb-16 21:00N 59°42' E 005°26'2 4.2
2018-Feb-16 20:30N 59°40' E 005°23'2 4.3
2018-Feb-16 20:00N 59°39' E 005°20'2 4.4
2018-Feb-16 19:30N 59°37' E 005°18'2 4.7
2018-Feb-16 19:00N 59°35' E 005°16'3 6.2
2018-Feb-16 18:30N 59°32' E 005°13'3 7.1
2018-Feb-16 18:01N 59°29' E 005°13'3 6.8
2018-Feb-16 17:30N 59°25' E 005°14'4 8.2
2018-Feb-16 17:00N 59°22' E 005°18'4 8.0
2018-Feb-16 16:29N 59°18' E 005°20'3 6.3
2018-Feb-16 16:00N 59°15' E 005°23'3 6.1
2018-Feb-16 15:30N 59°13' E 005°28'3 6.8
2018-Feb-16 15:00N 59°11' E 005°33'3 6.7
2018-Feb-16 14:30N 59°09' E 005°39'4 7.8
2018-Feb-16 14:00N 59°08' E 005°46'4 7.0
2018-Feb-16 13:29N 59°07' E 005°52'2 3.3
2018-Feb-16 13:00N 59°05' E 005°54'0 0.0
2018-Feb-16 12:29N 59°05' E 005°54'0 0.0
2018-Feb-16 12:00N 59°05' E 005°54'0 0.3
2018-Feb-16 11:28N 59°05' E 005°54'0 0.0
2018-Feb-16 10:58N 59°05' E 005°54'0 0.0
2018-Feb-16 10:28N 59°05' E 005°54'0 0.0
2018-Feb-16 09:58N 59°05' E 005°54'0 0.0
2018-Feb-16 09:28N 59°05' E 005°54'0 0.0
2018-Feb-16 08:58N 59°05' E 005°54'0 0.0
2018-Feb-16 08:28N 59°05' E 005°54'0 0.0
2018-Feb-16 07:58N 59°05' E 005°54'0 0.0
2018-Feb-16 07:28N 59°05' E 005°54'0 0.0
2018-Feb-16 06:58N 59°05' E 005°54'0 0.0
2018-Feb-16 06:28N 59°05' E 005°54'0 0.0
2018-Feb-16 05:58N 59°05' E 005°54'0 0.0
2018-Feb-16 05:28N 59°05' E 005°54'0 0.0
2018-Feb-16 04:55N 59°05' E 005°54'0 0.0
2018-Feb-16 04:28N 59°05' E 005°54'0 0.0
2018-Feb-16 03:58N 59°05' E 005°54'0 0.0
2018-Feb-16 03:28N 59°05' E 005°54'0 0.0
2018-Feb-16 02:58N 59°05' E 005°54'0 0.0
2018-Feb-16 02:28N 59°05' E 005°54'0 0.0
2018-Feb-16 01:58N 59°05' E 005°54'0 0.0
2018-Feb-16 01:28N 59°05' E 005°54'0 0.0
2018-Feb-16 00:58N 59°05' E 005°54'0 0.0
2018-Feb-16 00:28N 59°05' E 005°54'0 0.0
2018-Feb-15 23:55N 59°05' E 005°54'0 0.0
2018-Feb-15 23:28N 59°05' E 005°54'0 0.0
2018-Feb-15 22:58N 59°05' E 005°54'0 0.0
2018-Feb-15 22:28N 59°05' E 005°54'0 0.0
2018-Feb-15 21:58N 59°05' E 005°54'0 0.0
2018-Feb-15 21:28N 59°05' E 005°54'0 0.0
2018-Feb-15 20:58N 59°05' E 005°54'0 0.0
2018-Feb-15 20:25N 59°05' E 005°54'0 0.0
2018-Feb-15 19:58N 59°05' E 005°54'0 0.0
2018-Feb-15 19:28N 59°05' E 005°54'0 0.0
2018-Feb-15 18:58N 59°05' E 005°54'0 0.0
2018-Feb-15 18:28N 59°05' E 005°54'0 0.0
2018-Feb-15 17:58N 59°05' E 005°54'0 0.0
2018-Feb-15 17:28N 59°05' E 005°54'0 0.0
2018-Feb-15 16:58N 59°05' E 005°54'0 0.0
2018-Feb-15 16:28N 59°05' E 005°54'0 0.0
2018-Feb-15 15:58N 59°05' E 005°54'0 0.0
2018-Feb-15 15:28N 59°05' E 005°54'0 0.2
2018-Feb-15 15:00N 59°06' E 005°55'0 0.0
2018-Feb-15 14:30N 59°06' E 005°55'0 0.0
2018-Feb-15 14:00N 59°06' E 005°55'0 0.0
2018-Feb-15 13:30N 59°06' E 005°55'0 0.0
2018-Feb-15 13:00N 59°06' E 005°55'0 0.0
2018-Feb-15 12:30N 59°06' E 005°55'0 0.0
2018-Feb-15 11:57N 59°06' E 005°55'0 0.0
2018-Feb-15 11:30N 59°06' E 005°55'0 0.0
2018-Feb-15 11:00N 59°06' E 005°55'0 0.0
2018-Feb-15 10:30N 59°06' E 005°55'0 0.0
2018-Feb-15 10:00N 59°06' E 005°55'0 0.0
2018-Feb-15 09:30N 59°06' E 005°55'0 0.0
2018-Feb-15 09:00N 59°06' E 005°55'0 0.0
2018-Feb-15 08:27N 59°06' E 005°55'0 0.0
2018-Feb-15 08:00N 59°06' E 005°55'0 0.0
2018-Feb-15 07:30N 59°06' E 005°55'0 0.0
2018-Feb-15 07:00N 59°06' E 005°55'0 0.0
2018-Feb-15 06:30N 59°06' E 005°55'0 0.0
2018-Feb-15 06:00N 59°06' E 005°55'3 5.5
2018-Feb-15 05:30N 59°03' E 005°52'5 9.1
2018-Feb-15 05:00N 58°59' E 005°51'4 8.1
2018-Feb-15 04:30N 58°55' E 005°46'2 3.1
2018-Feb-15 04:00N 58°54' E 005°45'0 0.0
2018-Feb-15 03:29N 58°54' E 005°45'0 0.0
2018-Feb-15 02:59N 58°54' E 005°45'0 0.0
2018-Feb-15 02:29N 58°54' E 005°45'0 0.0
2018-Feb-15 01:59N 58°54' E 005°45'0 0.0
2018-Feb-15 01:29N 58°54' E 005°45'0 0.0
2018-Feb-15 00:59N 58°54' E 005°45'0 0.0
2018-Feb-15 00:30N 58°54' E 005°45'0 0.0
2018-Feb-14 23:59N 58°54' E 005°45'  

Dump ship's entire track history